Time;durP1;ratioP1;P1;durP2;ratioP2;P2;SDS_P1;SDS_P2;PMS_P1;PMS_P2;Temp;Humidity;BMP_temperature;BMP_pressure;BME280_temperature;BME280_humidity;BME280_pressure;Samples;Min_cycle;Max_cycle;Signal;HPM_P1;HPM_P2
2022/09/09 00:00:56;;;;;;;1.92;1.13;;;;;;;;;;4973123;28;20086;-68
2022/09/09 00:03:25;;;;;;;2.83;1.20;;;;;;;;;;4957345;28;20109;-67
2022/09/09 00:06:19;;;;;;;6.18;1.45;;;;;;;;;;4956363;28;20138;-67
2022/09/09 00:08:49;;;;;;;2.38;1.10;;;;;;;;;;4972844;28;20517;-67
2022/09/09 00:11:17;;;;;;;2.38;0.98;;;;;;;;;;4973198;28;20090;-67
2022/09/09 00:13:47;;;;;;;6.05;1.20;;;;;;;;;;4971920;28;20528;-67
2022/09/09 00:16:23;;;;;;;4.50;1.27;;;;;;;;;;4956656;28;20129;-67
2022/09/09 00:18:52;;;;;;;3.70;1.05;;;;;;;;;;4944295;28;20051;-67
2022/09/09 00:21:19;;;;;;;3.92;1.10;;;;;;;;;;4975851;28;20105;-68
2022/09/09 00:23:50;;;;;;;3.35;1.02;;;;;;;;;;4959895;28;20085;-68
2022/09/09 00:26:38;;;;;;;2.53;1.13;;;;;;;;;;4977105;28;20078;-68
2022/09/09 00:29:08;;;;;;;2.38;1.10;;;;;;;;;;4975552;28;20050;-69
2022/09/09 00:31:37;;;;;;;3.65;1.30;;;;;;;;;;4975616;28;20522;-68
2022/09/09 00:34:13;;;;;;;5.00;1.20;;;;;;;;;;4959966;28;20498;-68
2022/09/09 00:36:40;;;;;;;3.60;1.10;;;;;;;;;;4975616;28;20086;-67
2022/09/09 00:39:13;;;;;;;6.30;1.10;;;;;;;;;;4959360;28;20138;-68
2022/09/09 00:42:03;;;;;;;2.90;1.20;;;;;;;;;;4944270;28;20133;-68
2022/09/09 00:44:35;;;;;;;3.00;0.90;;;;;;;;;;4975864;28;20129;-68
2022/09/09 00:47:20;;;;;;;3.60;1.20;;;;;;;;;;4959813;28;20125;-68
2022/09/09 00:49:54;;;;;;;2.65;1.00;;;;;;;;;;4976213;28;20082;-69
2022/09/09 00:52:41;;;;;;;4.50;1.13;;;;;;;;;;4976453;28;20057;-68
2022/09/09 00:55:16;;;;;;;4.70;1.15;;;;;;;;;;4975222;28;20051;-68
2022/09/09 00:57:46;;;;;;;3.42;0.77;;;;;;;;;;4975427;28;20059;-67
2022/09/09 01:00:25;;;;;;;3.58;1.17;;;;;;;;;;4976256;28;20078;-67
2022/09/09 01:02:53;;;;;;;2.65;0.85;;;;;;;;;;4975031;28;20046;-68
2022/09/09 01:05:42;;;;;;;6.30;1.02;;;;;;;;;;4975327;28;20043;-68
2022/09/09 01:08:27;;;;;;;3.05;1.30;;;;;;;;;;4955322;28;20082;-68
2022/09/09 01:10:54;;;;;;;2.63;0.80;;;;;;;;;;4959391;28;20055;-68
2022/09/09 01:13:30;;;;;;;4.72;0.80;;;;;;;;;;4959072;28;20050;-68
2022/09/09 01:15:59;;;;;;;3.10;1.17;;;;;;;;;;4976402;28;20055;-68
2022/09/09 01:18:29;;;;;;;4.40;0.95;;;;;;;;;;4959522;28;20077;-67
2022/09/09 01:21:11;;;;;;;3.00;0.82;;;;;;;;;;4959421;28;20046;-67
2022/09/09 01:23:42;;;;;;;4.90;1.02;;;;;;;;;;4975107;28;20078;-69
2022/09/09 01:26:30;;;;;;;5.35;1.27;;;;;;;;;;4976266;28;20050;-69
2022/09/09 01:28:56;;;;;;;6.03;0.95;;;;;;;;;;4975683;28;20077;-69
2022/09/09 01:31:37;;;;;;;4.68;1.20;;;;;;;;;;4974743;28;20141;-68
2022/09/09 01:34:11;;;;;;;6.15;0.70;;;;;;;;;;4944173;28;20514;-68
2022/09/09 01:36:43;;;;;;;2.92;1.10;;;;;;;;;;4975525;28;20093;-69
2022/09/09 01:39:10;;;;;;;2.17;0.88;;;;;;;;;;4958313;28;20514;-69
2022/09/09 01:41:37;;;;;;;3.00;0.85;;;;;;;;;;4974480;28;20465;-68
2022/09/09 01:44:04;;;;;;;4.03;1.05;;;;;;;;;;4975467;28;20141;-68
2022/09/09 01:46:30;;;;;;;3.08;0.88;;;;;;;;;;4974218;28;20101;-68
2022/09/09 01:48:57;;;;;;;3.92;0.90;;;;;;;;;;4973994;28;20078;-68
2022/09/09 01:51:24;;;;;;;3.42;1.17;;;;;;;;;;4958273;28;20093;-68
2022/09/09 01:53:50;;;;;;;2.35;1.25;;;;;;;;;;4974405;28;20074;-68
2022/09/09 01:56:31;;;;;;;3.03;0.70;;;;;;;;;;4974199;28;20138;-67
2022/09/09 01:59:19;;;;;;;1.83;0.77;;;;;;;;;;4973794;28;20047;-68
2022/09/09 02:01:49;;;;;;;2.22;0.75;;;;;;;;;;4975533;28;20469;-67
2022/09/09 02:04:35;;;;;;;1.58;0.90;;;;;;;;;;4974104;28;20097;-68
2022/09/09 02:07:01;;;;;;;5.47;1.00;;;;;;;;;;4973980;28;20046;-68
2022/09/09 02:09:29;;;;;;;2.65;0.70;;;;;;;;;;4974755;28;20054;-68
2022/09/09 02:12:00;;;;;;;2.42;0.70;;;;;;;;;;4974051;28;20109;-68
2022/09/09 02:14:30;;;;;;;4.10;1.00;;;;;;;;;;4958182;28;20082;-68
2022/09/09 02:17:03;;;;;;;1.75;0.88;;;;;;;;;;4958113;28;20134;-68
2022/09/09 02:19:32;;;;;;;3.08;1.23;;;;;;;;;;4958275;28;20059;-68
2022/09/09 02:22:00;;;;;;;1.80;0.80;;;;;;;;;;4973573;28;20086;-69
2022/09/09 02:24:28;;;;;;;2.25;0.75;;;;;;;;;;4957697;28;20502;-67
2022/09/09 02:26:55;;;;;;;1.58;0.90;;;;;;;;;;4957861;28;20074;-67
2022/09/09 02:29:31;;;;;;;4.43;1.08;;;;;;;;;;4957454;28;20058;-67
2022/09/09 02:31:59;;;;;;;1.98;1.05;;;;;;;;;;4958358;28;20569;-68
2022/09/09 02:34:27;;;;;;;5.32;1.00;;;;;;;;;;4941919;28;20082;-68
2022/09/09 02:36:54;;;;;;;2.92;1.00;;;;;;;;;;4957516;28;20572;-68
2022/09/09 02:39:20;;;;;;;4.57;0.85;;;;;;;;;;4956998;28;20076;-68
2022/09/09 02:41:47;;;;;;;2.78;1.15;;;;;;;;;;4973272;28;20490;-67
2022/09/09 02:44:18;;;;;;;1.88;1.00;;;;;;;;;;4974377;28;20557;-69
2022/09/09 02:47:00;;;;;;;3.67;1.10;;;;;;;;;;4957823;28;20494;-68
2022/09/09 02:50:07;;;;;;;4.30;1.33;;;;;;;;;;4974050;28;20073;-68
2022/09/09 02:53:01;;;;;;;2.33;0.90;;;;;;;;;;4952158;28;20490;-68
2022/09/09 02:55:48;;;;;;;2.65;1.00;;;;;;;;;;4973058;28;20101;-68
2022/09/09 02:58:17;;;;;;;2.40;1.05;;;;;;;;;;4957184;28;20047;-68
2022/09/09 03:00:47;;;;;;;2.88;0.95;;;;;;;;;;4957145;28;20058;-68
2022/09/09 03:03:16;;;;;;;2.17;1.02;;;;;;;;;;4957793;28;20054;-68
2022/09/09 03:05:43;;;;;;;2.65;1.10;;;;;;;;;;4972834;28;20055;-68
2022/09/09 03:08:10;;;;;;;3.60;1.25;;;;;;;;;;4972679;28;20054;-68
2022/09/09 03:10:37;;;;;;;4.05;0.90;;;;;;;;;;4957070;28;20470;-67
2022/09/09 03:13:05;;;;;;;2.88;1.10;;;;;;;;;;4974177;28;20109;-68
2022/09/09 03:15:35;;;;;;;4.00;1.20;;;;;;;;;;4973855;28;20141;-67
2022/09/09 03:18:01;;;;;;;4.22;1.33;;;;;;;;;;4972461;28;20082;-67
2022/09/09 03:20:29;;;;;;;4.20;1.17;;;;;;;;;;4973624;28;20137;-69
2022/09/09 03:22:56;;;;;;;2.83;1.25;;;;;;;;;;4972779;28;20085;-68
2022/09/09 03:25:23;;;;;;;5.88;1.92;;;;;;;;;;4972544;28;20105;-67
2022/09/09 03:27:54;;;;;;;3.50;1.08;;;;;;;;;;4956363;28;20051;-68
2022/09/09 03:30:22;;;;;;;2.60;1.10;;;;;;;;;;4957121;28;20062;-68
2022/09/09 03:32:49;;;;;;;4.32;1.55;;;;;;;;;;4956493;28;20138;-68
2022/09/09 03:35:16;;;;;;;6.78;1.85;;;;;;;;;;4956441;28;20086;-68
2022/09/09 03:37:43;;;;;;;2.88;1.20;;;;;;;;;;4956466;28;20098;-68
2022/09/09 03:40:10;;;;;;;4.85;1.38;;;;;;;;;;4972262;28;20238;-68
2022/09/09 03:42:37;;;;;;;5.13;1.48;;;;;;;;;;4956417;28;20508;-68
2022/09/09 03:45:06;;;;;;;1.75;1.30;;;;;;;;;;4972324;28;20101;-67
2022/09/09 03:47:33;;;;;;;2.53;1.20;;;;;;;;;;4956485;28;20051;-68
2022/09/09 03:49:59;;;;;;;2.70;1.10;;;;;;;;;;4971774;28;20055;-68
2022/09/09 03:52:26;;;;;;;5.32;1.20;;;;;;;;;;4971714;28;20054;-67
2022/09/09 03:54:53;;;;;;;3.40;1.08;;;;;;;;;;4973129;28;20565;-67
2022/09/09 03:57:20;;;;;;;5.68;1.13;;;;;;;;;;4971956;28;20550;-67
2022/09/09 03:59:47;;;;;;;6.55;1.73;;;;;;;;;;4971718;28;20090;-67
2022/09/09 04:02:13;;;;;;;3.83;1.27;;;;;;;;;;4955954;28;20136;-67
2022/09/09 04:04:40;;;;;;;4.40;1.30;;;;;;;;;;4972066;28;20050;-67
2022/09/09 04:07:07;;;;;;;2.47;1.20;;;;;;;;;;4972241;28;20115;-67
2022/09/09 04:09:34;;;;;;;2.55;1.00;;;;;;;;;;4972943;28;20054;-68
2022/09/09 04:12:01;;;;;;;2.13;1.45;;;;;;;;;;4956122;28;20090;-67
2022/09/09 04:14:28;;;;;;;3.03;1.10;;;;;;;;;;4972065;28;20086;-68
2022/09/09 04:16:58;;;;;;;2.65;1.05;;;;;;;;;;4973232;28;20043;-67
2022/09/09 04:19:24;;;;;;;3.35;1.20;;;;;;;;;;4971806;28;20086;-67
2022/09/09 04:21:51;;;;;;;3.72;0.98;;;;;;;;;;4956033;28;20058;-67
2022/09/09 04:24:18;;;;;;;1.88;1.00;;;;;;;;;;4971782;28;20054;-68
2022/09/09 04:26:45;;;;;;;2.03;0.88;;;;;;;;;;4971917;28;20042;-67
2022/09/09 04:29:12;;;;;;;3.17;1.10;;;;;;;;;;4955567;28;20047;-68
2022/09/09 04:31:41;;;;;;;1.90;0.85;;;;;;;;;;4973084;28;20051;-67
2022/09/09 04:34:11;;;;;;;3.08;1.10;;;;;;;;;;4973301;28;20054;-67
2022/09/09 04:36:39;;;;;;;4.97;1.48;;;;;;;;;;4972767;28;20090;-67
2022/09/09 04:39:05;;;;;;;3.42;0.95;;;;;;;;;;4971456;28;20138;-66
2022/09/09 04:41:32;;;;;;;4.63;1.30;;;;;;;;;;4971618;28;20046;-68
2022/09/09 04:44:00;;;;;;;3.83;1.05;;;;;;;;;;4971755;28;20133;-67
2022/09/09 04:46:27;;;;;;;3.03;0.88;;;;;;;;;;4971587;28;20042;-67
2022/09/09 04:48:54;;;;;;;4.00;1.17;;;;;;;;;;4972554;28;20209;-67
2022/09/09 04:51:20;;;;;;;1.60;0.70;;;;;;;;;;4972905;28;20082;-68
2022/09/09 04:53:48;;;;;;;2.60;0.95;;;;;;;;;;4971496;28;20054;-67
2022/09/09 04:56:16;;;;;;;3.35;1.27;;;;;;;;;;4971271;28;20086;-68
2022/09/09 04:58:43;;;;;;;3.05;0.98;;;;;;;;;;4955545;28;20094;-68
2022/09/09 05:01:17;;;;;;;3.30;1.00;;;;;;;;;;4955932;28;20090;-68
2022/09/09 05:03:47;;;;;;;3.30;0.90;;;;;;;;;;4959356;28;20274;-68
2022/09/09 05:06:18;;;;;;;4.57;1.10;;;;;;;;;;4976530;28;20051;-67
2022/09/09 05:08:45;;;;;;;2.85;0.93;;;;;;;;;;4959130;28;20125;-68
2022/09/09 05:11:19;;;;;;;6.70;1.33;;;;;;;;;;4975191;28;20054;-67
2022/09/09 05:13:46;;;;;;;2.85;0.77;;;;;;;;;;4943374;28;20101;-67
2022/09/09 05:16:13;;;;;;;4.40;1.10;;;;;;;;;;4974880;28;20491;-69
2022/09/09 05:18:41;;;;;;;3.00;1.00;;;;;;;;;;4974471;28;20422;-68
2022/09/09 05:21:08;;;;;;;5.20;1.20;;;;;;;;;;4958849;28;20059;-68
2022/09/09 05:23:35;;;;;;;5.80;1.27;;;;;;;;;;4959041;28;20051;-68
2022/09/09 05:26:02;;;;;;;1.85;1.10;;;;;;;;;;4958928;28;20093;-68
2022/09/09 05:28:30;;;;;;;4.45;1.33;;;;;;;;;;4942818;28;20043;-68
2022/09/09 05:31:11;;;;;;;3.95;1.42;;;;;;;;;;4974538;28;20109;-68
2022/09/09 05:33:40;;;;;;;2.10;0.93;;;;;;;;;;4960354;28;20069;-68
2022/09/09 05:36:08;;;;;;;1.77;1.00;;;;;;;;;;4959168;28;20050;-68
2022/09/09 05:38:35;;;;;;;2.85;1.00;;;;;;;;;;4974431;28;20051;-68
2022/09/09 05:41:02;;;;;;;3.20;1.15;;;;;;;;;;4975738;28;20077;-68
2022/09/09 05:43:29;;;;;;;3.15;1.20;;;;;;;;;;4974529;28;20134;-68
2022/09/09 05:46:06;;;;;;;3.60;1.27;;;;;;;;;;4974501;28;20109;-67
2022/09/09 05:48:34;;;;;;;3.38;1.25;;;;;;;;;;4987245;23;20097;-69
2022/09/09 05:51:02;;;;;;;2.70;1.13;;;;;;;;;;5014862;28;20049;-69
2022/09/09 05:53:32;;;;;;;5.88;1.30;;;;;;;;;;5014771;28;20149;-69
2022/09/09 05:56:06;;;;;;;2.63;1.75;;;;;;;;;;5014885;28;20144;-69
2022/09/09 05:58:33;;;;;;;4.40;0.90;;;;;;;;;;5014200;28;20096;-69
2022/09/09 06:01:01;;;;;;;2.08;1.02;;;;;;;;;;5014357;28;20060;-69
2022/09/09 06:03:28;;;;;;;4.93;1.02;;;;;;;;;;5014262;28;20092;-69
2022/09/09 06:05:59;;;;;;;5.35;0.93;;;;;;;;;;5014182;28;20596;-69
2022/09/09 06:08:26;;;;;;;2.17;0.90;;;;;;;;;;5013960;28;20050;-69
2022/09/09 06:10:52;;;;;;;1.70;0.82;;;;;;;;;;5014191;28;20053;-69
2022/09/09 06:13:19;;;;;;;5.47;2.58;;;;;;;;;;5013740;28;20082;-69
2022/09/09 06:15:52;;;;;;;6.93;1.90;;;;;;;;;;5013662;28;20145;-69
2022/09/09 06:18:18;;;;;;;;;;;;;;;;;;5014454;28;20053;-69
2022/09/09 06:21:03;;;;;;;3.50;1.10;;;;;;;;;;5013802;28;20376;-69
2022/09/09 06:23:30;;;;;;;4.70;1.00;;;;;;;;;;5014002;28;20492;-69
2022/09/09 06:26:20;;;;;;;4.03;1.10;;;;;;;;;;5013787;28;20081;-69
2022/09/09 06:28:47;;;;;;;3.78;1.02;;;;;;;;;;5013727;28;20479;-69
2022/09/09 06:31:22;;;;;;;6.28;1.35;;;;;;;;;;5013731;28;20579;-69
2022/09/09 06:33:55;;;;;;;3.90;1.27;;;;;;;;;;5013752;28;20054;-69
2022/09/09 06:36:32;;;;;;;1.65;0.88;;;;;;;;;;5013541;28;20053;-69
2022/09/09 06:38:59;;;;;;;2.67;0.90;;;;;;;;;;5013708;28;20050;-69
2022/09/09 06:41:27;;;;;;;2.35;1.52;;;;;;;;;;5013755;28;20049;-69
2022/09/09 06:43:57;;;;;;;2.67;1.13;;;;;;;;;;5013634;28;20153;-69
2022/09/09 06:46:27;;;;;;;4.38;0.82;;;;;;;;;;5013424;28;20084;-69
2022/09/09 06:48:59;;;;;;;2.50;0.90;;;;;;;;;;5013184;28;20574;-69
2022/09/09 06:51:28;;;;;;;4.10;1.00;;;;;;;;;;5013466;28;20100;-69
2022/09/09 06:53:56;;;;;;;2.30;1.00;;;;;;;;;;5013469;28;20132;-69
2022/09/09 06:56:27;;;;;;;5.65;1.20;;;;;;;;;;5013385;28;20077;-69
2022/09/09 06:58:56;;;;;;;5.03;1.77;;;;;;;;;;5012967;28;20140;-69
2022/09/09 07:01:24;;;;;;;6.00;2.33;;;;;;;;;;5013179;28;20085;-69
2022/09/09 07:03:53;;;;;;;3.75;1.48;;;;;;;;;;5013229;28;20080;-69
2022/09/09 07:06:24;;;;;;;5.63;2.50;;;;;;;;;;5013305;28;20073;-69
2022/09/09 07:08:52;;;;;;;5.57;1.42;;;;;;;;;;5012994;28;20132;-69
2022/09/09 07:11:23;;;;;;;4.25;1.73;;;;;;;;;;5013228;28;20419;-69
2022/09/09 07:13:50;;;;;;;4.88;1.27;;;;;;;;;;5012931;28;20584;-69
2022/09/09 07:16:18;;;;;;;5.03;1.40;;;;;;;;;;5013151;28;20468;-69
2022/09/09 07:18:45;;;;;;;5.70;1.60;;;;;;;;;;5012708;28;20068;-69
2022/09/09 07:21:13;;;;;;;5.07;1.33;;;;;;;;;;5013142;28;20057;-69
2022/09/09 07:23:40;;;;;;;3.50;1.08;;;;;;;;;;5012808;28;20512;-69
2022/09/09 07:26:12;;;;;;;3.55;1.00;;;;;;;;;;5012662;28;20523;-69
2022/09/09 07:28:38;;;;;;;4.80;1.40;;;;;;;;;;5012722;28;20050;-69
2022/09/09 07:31:05;;;;;;;3.88;1.10;;;;;;;;;;5012737;28;20144;-69
2022/09/09 07:33:33;;;;;;;2.75;1.17;;;;;;;;;;5012887;28;20096;-69
2022/09/09 07:36:06;;;;;;;1.95;1.10;;;;;;;;;;5012702;28;20084;-69
2022/09/09 07:38:47;;;;;;;4.18;1.25;;;;;;;;;;5012301;28;20081;-69
2022/09/09 07:41:19;;;;;;;4.30;1.17;;;;;;;;;;5012788;28;20050;-69
2022/09/09 07:43:47;;;;;;;3.85;1.25;;;;;;;;;;5012523;28;20500;-69
2022/09/09 07:46:14;;;;;;;2.58;1.15;;;;;;;;;;5012471;28;20054;-69
2022/09/09 07:48:51;;;;;;;3.10;1.30;;;;;;;;;;5012083;28;20056;-70
2022/09/09 07:51:24;;;;;;;2.45;1.00;;;;;;;;;;5012321;28;20092;-69
2022/09/09 07:53:59;;;;;;;2.78;1.00;;;;;;;;;;4995152;28;20050;-69
2022/09/09 07:56:26;;;;;;;2.72;0.95;;;;;;;;;;5012541;28;20098;-69
2022/09/09 07:58:54;;;;;;;5.85;1.05;;;;;;;;;;5011905;28;20568;-69
2022/09/09 08:01:26;;;;;;;1.52;0.90;;;;;;;;;;5012324;28;20145;-70
2022/09/09 08:04:01;;;;;;;2.88;1.38;;;;;;;;;;5012146;28;20046;-69
2022/09/09 08:06:29;;;;;;;3.13;1.10;;;;;;;;;;5012313;28;20500;-69
2022/09/09 08:08:56;;;;;;;4.75;1.40;;;;;;;;;;5011909;28;20133;-70
2022/09/09 08:11:24;;;;;;;4.93;1.05;;;;;;;;;;5012452;28;20609;-69
2022/09/09 08:13:51;;;;;;;4.13;0.93;;;;;;;;;;5012197;28;20092;-69
2022/09/09 08:16:25;;;;;;;4.55;1.27;;;;;;;;;;5012438;28;20050;-69
2022/09/09 08:18:53;;;;;;;4.18;1.00;;;;;;;;;;5012089;28;20129;-69
2022/09/09 08:21:23;;;;;;;5.40;1.20;;;;;;;;;;5012191;28;20133;-69
2022/09/09 08:23:52;;;;;;;2.30;0.80;;;;;;;;;;4994874;28;20087;-70
2022/09/09 08:26:26;;;;;;;3.10;1.00;;;;;;;;;;5012038;28;20050;-70
2022/09/09 08:28:55;;;;;;;3.58;1.13;;;;;;;;;;4994841;28;20145;-70
2022/09/09 08:31:24;;;;;;;3.28;1.35;;;;;;;;;;5012174;28;20074;-70
2022/09/09 08:33:50;;;;;;;2.78;0.90;;;;;;;;;;5012126;28;20096;-70
2022/09/09 08:36:21;;;;;;;3.50;1.30;;;;;;;;;;5012021;28;20053;-70
2022/09/09 08:38:54;;;;;;;3.50;1.00;;;;;;;;;;4981613;28;20046;-69
2022/09/09 08:42:00;;;;;;;1.70;0.80;;;;;;;;;;4999205;28;20049;-70
2022/09/09 08:44:42;;;;;;;6.75;0.80;;;;;;;;;;5015803;28;20153;-70
2022/09/09 08:47:30;;;;;;;2.45;0.75;;;;;;;;;;5015983;28;20054;-70
2022/09/09 08:50:11;;;;;;;4.40;1.05;;;;;;;;;;5015835;28;20049;-70
2022/09/09 08:52:47;;;;;;;6.85;1.05;;;;;;;;;;4999425;28;20081;-70
2022/09/09 08:55:25;;;;;;;3.17;0.68;;;;;;;;;;5015626;28;20073;-70
2022/09/09 08:57:54;;;;;;;3.75;1.00;;;;;;;;;;5015255;28;20133;-70
2022/09/09 09:00:20;;;;;;;4.00;1.10;;;;;;;;;;4997821;28;20088;-70
2022/09/09 09:03:09;;;;;;;2.05;0.57;;;;;;;;;;4981917;28;20088;-70
2022/09/09 09:05:58;;;;;;;4.03;1.35;;;;;;;;;;5015454;28;20132;-70
2022/09/09 09:08:29;;;;;;;2.72;0.85;;;;;;;;;;5007059;28;20141;-70
2022/09/09 09:10:56;;;;;;;3.08;0.70;;;;;;;;;;5015532;28;20152;-70
2022/09/09 09:13:52;;;;;;;3.05;1.17;;;;;;;;;;4998041;28;20092;-69
2022/09/09 09:16:32;;;;;;;4.65;1.10;;;;;;;;;;4998064;28;20141;-70
2022/09/09 09:18:59;;;;;;;2.38;1.27;;;;;;;;;;4998764;28;20046;-70
2022/09/09 09:21:36;;;;;;;2.60;1.05;;;;;;;;;;4997753;28;20152;-70
2022/09/09 09:24:03;;;;;;;2.78;0.75;;;;;;;;;;4981969;28;20050;-70
2022/09/09 09:26:35;;;;;;;5.40;0.80;;;;;;;;;;4981640;28;20389;-70
2022/09/09 09:29:12;;;;;;;2.63;0.80;;;;;;;;;;5014635;28;20042;-70
2022/09/09 09:31:38;;;;;;;5.13;1.33;;;;;;;;;;4998233;28;20605;-70
2022/09/09 09:34:05;;;;;;;1.70;0.52;;;;;;;;;;5015091;28;20096;-70
2022/09/09 09:36:46;;;;;;;3.35;0.80;;;;;;;;;;5015136;28;20092;-70
2022/09/09 09:39:38;;;;;;;5.32;0.50;;;;;;;;;;4998471;28;20077;-70
2022/09/09 09:42:24;;;;;;;4.15;0.80;;;;;;;;;;5000761;28;20077;-70
2022/09/09 09:44:51;;;;;;;4.90;0.80;;;;;;;;;;4981356;28;20045;-69
2022/09/09 09:47:23;;;;;;;3.03;0.63;;;;;;;;;;5014479;28;20136;-70
2022/09/09 09:49:58;;;;;;;2.35;0.57;;;;;;;;;;5012874;28;20058;-70
2022/09/09 09:52:26;;;;;;;1.42;0.60;;;;;;;;;;5014771;28;20421;-70
2022/09/09 09:54:53;;;;;;;3.25;0.90;;;;;;;;;;4997115;28;20050;-70
2022/09/09 09:57:24;;;;;;;2.38;0.40;;;;;;;;;;4997106;28;20089;-70
2022/09/09 10:00:05;;;;;;;1.67;0.50;;;;;;;;;;5012919;28;20532;-70
2022/09/09 10:02:37;;;;;;;2.25;0.40;;;;;;;;;;5014289;28;20077;-70
2022/09/09 10:05:25;;;;;;;1.85;0.38;;;;;;;;;;4997233;28;20088;-70
2022/09/09 10:08:19;;;;;;;0.90;0.30;;;;;;;;;;4997957;28;20042;-70
2022/09/09 10:11:24;;;;;;;1.80;0.70;;;;;;;;;;5014196;28;20054;-70
2022/09/09 10:14:05;;;;;;;1.13;0.43;;;;;;;;;;5014274;28;20085;-70
2022/09/09 10:16:44;;;;;;;1.42;0.38;;;;;;;;;;4997009;28;20096;-70
2022/09/09 10:19:15;;;;;;;1.98;0.60;;;;;;;;;;5013589;28;20073;-70
2022/09/09 10:22:03;;;;;;;1.48;0.40;;;;;;;;;;4996567;28;20085;-70
2022/09/09 10:24:36;;;;;;;2.40;0.60;;;;;;;;;;5014086;28;20092;-70
2022/09/09 10:27:20;;;;;;;1.25;0.40;;;;;;;;;;5013990;28;20057;-70
2022/09/09 10:30:17;;;;;;;3.90;0.57;;;;;;;;;;5013478;28;20101;-70
2022/09/09 10:32:55;;;;;;;2.17;0.77;;;;;;;;;;5013987;28;20088;-70
2022/09/09 10:35:37;;;;;;;2.20;0.60;;;;;;;;;;4997088;28;20130;-70
2022/09/09 10:38:28;;;;;;;2.58;0.50;;;;;;;;;;4996066;28;20045;-70
2022/09/09 10:40:56;;;;;;;1.42;0.60;;;;;;;;;;4996415;28;20050;-70
2022/09/09 10:43:57;;;;;;;3.25;0.68;;;;;;;;;;5013700;28;20056;-70
2022/09/09 10:46:54;;;;;;;3.50;0.70;;;;;;;;;;5013722;28;20064;-70
2022/09/09 10:49:46;;;;;;;2.58;0.73;;;;;;;;;;4998280;28;20077;-70
2022/09/09 10:52:39;;;;;;;2.25;0.70;;;;;;;;;;5013766;28;20104;-70
2022/09/09 10:55:26;;;;;;;2.13;0.65;;;;;;;;;;4990898;28;20054;-70
2022/09/09 10:57:57;;;;;;;1.92;0.85;;;;;;;;;;4998489;28;20129;-70
2022/09/09 11:00:48;;;;;;;3.83;0.70;;;;;;;;;;4979882;28;20088;-70
2022/09/09 11:03:19;;;;;;;3.22;0.70;;;;;;;;;;5013738;28;20092;-70
2022/09/09 11:05:49;;;;;;;3.17;0.75;;;;;;;;;;4996582;28;20050;-70
2022/09/09 11:08:21;;;;;;;2.05;0.55;;;;;;;;;;5013106;28;20597;-70
2022/09/09 11:10:55;;;;;;;;;;;;;;;;;;5013697;28;20524;-70
2022/09/09 11:13:25;;;;;;;;;;;;;;;;;;5013954;28;19980;-70
2022/09/09 11:15:55;;;;;;;3.38;0.80;;;;;;;;;;4996190;28;19922;-70
2022/09/09 11:18:22;;;;;;;2.70;0.50;;;;;;;;;;5011636;28;20133;-71
2022/09/09 11:20:52;;;;;;;1.52;0.65;;;;;;;;;;5014073;28;20417;-71
2022/09/09 11:23:27;;;;;;;4.38;0.90;;;;;;;;;;4995662;28;20082;-71
2022/09/09 11:25:59;;;;;;;3.33;0.65;;;;;;;;;;4980286;28;20085;-71
2022/09/09 11:29:02;;;;;;;4.15;0.80;;;;;;;;;;4979893;28;20057;-71
2022/09/09 11:31:55;;;;;;;6.40;1.10;;;;;;;;;;5012739;28;20050;-71
2022/09/09 11:35:13;;;;;;;4.75;0.80;;;;;;;;;;5012742;28;20100;-71
2022/09/09 11:37:39;;;;;;;5.00;1.20;;;;;;;;;;4971092;28;20054;-72
2022/09/09 11:40:14;;;;;;;4.03;1.25;;;;;;;;;;5012283;28;20077;-72
2022/09/09 11:42:42;;;;;;;2.45;1.00;;;;;;;;;;4995230;28;20496;-72
2022/09/09 11:45:11;;;;;;;4.63;1.02;;;;;;;;;;5012757;28;20104;-72
2022/09/09 11:47:37;;;;;;;3.50;0.90;;;;;;;;;;4995401;28;20073;-72
2022/09/09 11:50:23;;;;;;;3.00;0.90;;;;;;;;;;4995295;28;20480;-68
2022/09/09 11:52:49;;;;;;;1.63;0.60;;;;;;;;;;4995052;28;20132;-69
2022/09/09 11:55:31;;;;;;;1.98;0.70;;;;;;;;;;4995528;28;20049;-68
2022/09/09 11:58:15;;;;;;;0.75;0.35;;;;;;;;;;5012169;28;20513;-69
2022/09/09 12:00:48;;;;;;;2.58;0.35;;;;;;;;;;4995018;28;20085;-69
2022/09/09 12:03:42;;;;;;;1.70;0.40;;;;;;;;;;5012269;28;20085;-69
2022/09/09 12:06:31;;;;;;;3.03;0.40;;;;;;;;;;5012315;28;20050;-69
2022/09/09 12:09:06;;;;;;;2.25;0.47;;;;;;;;;;4997539;28;20085;-68
2022/09/09 12:11:32;;;;;;;1.58;0.40;;;;;;;;;;4995330;28;20107;-69
2022/09/09 12:14:00;;;;;;;1.00;0.40;;;;;;;;;;5012136;28;20468;-69
2022/09/09 12:16:37;;;;;;;1.63;0.43;;;;;;;;;;4995271;28;20078;-69
2022/09/09 12:19:09;;;;;;;2.78;0.30;;;;;;;;;;5011812;28;20567;-69
2022/09/09 12:22:00;;;;;;;1.45;0.40;;;;;;;;;;5012177;28;20136;-69
2022/09/09 12:24:56;;;;;;;0.75;0.20;;;;;;;;;;4997297;28;20394;-69
2022/09/09 12:28:04;;;;;;;2.50;0.50;;;;;;;;;;4995340;28;20058;-70
2022/09/09 12:31:09;;;;;;;1.42;0.38;;;;;;;;;;4951230;29;20055;-69
2022/09/09 12:33:40;;;;;;;1.77;0.52;;;;;;;;;;4951545;29;20086;-69
2022/09/09 12:36:09;;;;;;;1.10;0.60;;;;;;;;;;4982326;28;20106;-69
2022/09/09 12:38:40;;;;;;;0.95;0.30;;;;;;;;;;4994432;28;20100;-69
2022/09/09 12:41:27;;;;;;;0.77;0.25;;;;;;;;;;4994806;28;20417;-69
2022/09/09 12:44:08;;;;;;;2.97;0.43;;;;;;;;;;5012130;28;20081;-69
2022/09/09 12:46:36;;;;;;;1.85;0.50;;;;;;;;;;4994555;28;20111;-69
2022/09/09 12:49:04;;;;;;;1.38;0.50;;;;;;;;;;4993907;28;20085;-69
2022/09/09 12:51:31;;;;;;;0.77;0.50;;;;;;;;;;4978703;28;20133;-68
2022/09/09 12:54:00;;;;;;;1.52;0.40;;;;;;;;;;4994753;28;20085;-68
2022/09/09 12:56:30;;;;;;;1.85;0.28;;;;;;;;;;5011826;28;20488;-69
2022/09/09 12:58:58;;;;;;;1.25;0.30;;;;;;;;;;5011452;28;20080;-69
2022/09/09 13:01:29;;;;;;;1.00;0.30;;;;;;;;;;4994567;28;20092;-69
2022/09/09 13:03:56;;;;;;;1.77;0.35;;;;;;;;;;5011640;28;20046;-69
2022/09/09 13:06:24;;;;;;;2.08;0.32;;;;;;;;;;4994537;28;20129;-68
2022/09/09 13:08:59;;;;;;;1.50;0.30;;;;;;;;;;5011662;28;20078;-70
2022/09/09 13:11:28;;;;;;;2.05;0.40;;;;;;;;;;4994859;28;20054;-69
2022/09/09 13:13:55;;;;;;;0.77;0.22;;;;;;;;;;4994508;28;20129;-69
2022/09/09 13:16:33;;;;;;;2.22;0.35;;;;;;;;;;4994241;28;20053;-69
2022/09/09 13:19:14;;;;;;;1.02;0.32;;;;;;;;;;4995153;28;20077;-69
2022/09/09 13:21:42;;;;;;;2.80;0.40;;;;;;;;;;4994310;28;20129;-70
2022/09/09 13:24:31;;;;;;;0.73;0.17;;;;;;;;;;5013540;28;20112;-70
2022/09/09 13:27:03;;;;;;;5.13;0.45;;;;;;;;;;4997928;28;20077;-70
2022/09/09 13:29:31;;;;;;;0.68;0.40;;;;;;;;;;5014707;28;20046;-69
2022/09/09 13:32:16;;;;;;;2.70;0.70;;;;;;;;;;4997638;28;20089;-69
2022/09/09 13:34:53;;;;;;;0.95;0.30;;;;;;;;;;5014865;28;20505;-69
2022/09/09 13:37:31;;;;;;;2.50;1.25;;;;;;;;;;5014912;28;20046;-69
2022/09/09 13:39:58;;;;;;;0.95;0.20;;;;;;;;;;4981942;28;20046;-70
2022/09/09 13:42:35;;;;;;;2.92;0.55;;;;;;;;;;4997407;28;20066;-69
2022/09/09 13:45:04;;;;;;;1.65;0.73;;;;;;;;;;4997832;28;20096;-69
2022/09/09 13:47:32;;;;;;;1.67;0.40;;;;;;;;;;4997184;28;20053;-71
2022/09/09 13:50:09;;;;;;;1.70;0.40;;;;;;;;;;5014160;28;20136;-70
2022/09/09 13:52:36;;;;;;;0.80;0.30;;;;;;;;;;4998836;28;20420;-70
2022/09/09 13:55:02;;;;;;;0.70;0.40;;;;;;;;;;5014784;28;20053;-70
2022/09/09 13:57:29;;;;;;;1.48;0.40;;;;;;;;;;5014515;28;20054;-70
2022/09/09 13:59:56;;;;;;;0.68;0.30;;;;;;;;;;5014081;28;20474;-69
2022/09/09 14:02:31;;;;;;;0.93;0.32;;;;;;;;;;5014620;28;20482;-69
2022/09/09 14:04:58;;;;;;;1.40;0.47;;;;;;;;;;5014322;28;20105;-69
2022/09/09 14:07:25;;;;;;;2.72;0.55;;;;;;;;;;5014347;28;20058;-69
2022/09/09 14:09:52;;;;;;;1.65;0.55;;;;;;;;;;5013885;28;20046;-69
2022/09/09 14:12:19;;;;;;;1.23;0.45;;;;;;;;;;5014156;28;20057;-69
2022/09/09 14:14:46;;;;;;;1.88;0.30;;;;;;;;;;5014122;28;20066;-70
2022/09/09 14:17:14;;;;;;;1.08;0.30;;;;;;;;;;5014316;28;20100;-69
2022/09/09 14:19:40;;;;;;;0.77;0.28;;;;;;;;;;5013983;28;20073;-70
2022/09/09 14:22:07;;;;;;;1.80;0.52;;;;;;;;;;5019164;28;20085;-69
2022/09/09 14:24:34;;;;;;;0.75;0.20;;;;;;;;;;5039513;28;20053;-69
2022/09/09 14:27:00;;;;;;;1.10;0.40;;;;;;;;;;5019966;28;20153;-70
2022/09/09 14:29:27;;;;;;;0.70;0.10;;;;;;;;;;5013637;28;20077;-70
2022/09/09 14:31:53;;;;;;;2.03;0.30;;;;;;;;;;5014028;28;20127;-70
2022/09/09 14:34:20;;;;;;;1.13;0.50;;;;;;;;;;5013876;28;20050;-71
2022/09/09 14:36:47;;;;;;;1.10;0.35;;;;;;;;;;5013445;28;20140;-70
2022/09/09 14:39:13;;;;;;;1.95;0.35;;;;;;;;;;5013699;28;20052;-70
2022/09/09 14:41:40;;;;;;;2.42;0.55;;;;;;;;;;5013595;28;20049;-70
2022/09/09 14:44:07;;;;;;;1.27;0.25;;;;;;;;;;5014377;28;20107;-70
2022/09/09 14:46:34;;;;;;;2.40;0.50;;;;;;;;;;5013734;28;20142;-70
2022/09/09 14:49:01;;;;;;;0.88;0.22;;;;;;;;;;5013330;28;20469;-70
2022/09/09 14:51:28;;;;;;;0.75;0.30;;;;;;;;;;5013953;28;20132;-69
2022/09/09 14:53:56;;;;;;;1.73;0.30;;;;;;;;;;5013422;28;20144;-69
2022/09/09 14:56:29;;;;;;;0.98;0.40;;;;;;;;;;5013246;28;20065;-70
2022/09/09 14:58:57;;;;;;;3.67;0.75;;;;;;;;;;5013643;28;20068;-69
2022/09/09 15:01:26;;;;;;;2.53;0.55;;;;;;;;;;4996822;28;20106;-69
2022/09/09 15:03:59;;;;;;;1.23;0.40;;;;;;;;;;5013741;28;20137;-69
2022/09/09 15:06:27;;;;;;;0.75;0.20;;;;;;;;;;5013493;28;20046;-70
2022/09/09 15:08:53;;;;;;;1.20;0.30;;;;;;;;;;4995689;28;20104;-70
2022/09/09 15:11:21;;;;;;;1.80;0.40;;;;;;;;;;5013263;28;20100;-70
2022/09/09 15:13:48;;;;;;;0.73;0.20;;;;;;;;;;5013247;28;20428;-69
2022/09/09 15:16:17;;;;;;;1.25;0.20;;;;;;;;;;4995714;28;20514;-69